createdAt,value
2023-05-04T00:00:06.410Z,5.85
2023-05-04T00:02:54.928Z,6.09
2023-05-04T00:05:22.426Z,5.98
2023-05-04T00:07:49.913Z,6.05
2023-05-04T00:10:17.297Z,6.10
2023-05-04T00:12:46.403Z,5.87
2023-05-04T00:15:13.694Z,6.01
2023-05-04T00:17:41.569Z,5.95
2023-05-04T00:20:09.227Z,5.84
2023-05-04T00:22:36.783Z,5.71
2023-05-04T00:25:04.241Z,5.70
2023-05-04T00:27:31.864Z,5.40
2023-05-04T00:29:59.088Z,5.35
2023-05-04T00:32:28.124Z,5.48
2023-05-04T00:34:55.348Z,5.48
2023-05-04T00:37:23.845Z,5.29
2023-05-04T00:39:51.191Z,5.24
2023-05-04T00:42:19.013Z,5.41
2023-05-04T00:44:46.322Z,5.57
2023-05-04T00:47:14.187Z,5.52
2023-05-04T00:49:41.704Z,5.41
2023-05-04T00:52:11.411Z,5.70
2023-05-04T00:54:39.100Z,5.84
2023-05-04T00:57:06.823Z,5.82
2023-05-04T00:59:34.331Z,5.91
2023-05-04T01:02:01.931Z,5.91
2023-05-04T01:04:29.332Z,6.01
2023-05-04T01:07:37.378Z,6.05
2023-05-04T01:10:08.065Z,6.22
2023-05-04T01:12:41.417Z,6.06
2023-05-04T01:15:13.155Z,6.32
2023-05-04T01:17:40.705Z,6.35
2023-05-04T01:20:09.628Z,6.22
2023-05-04T01:22:40.698Z,6.41
2023-05-04T01:25:08.592Z,6.29
2023-05-04T01:28:19.091Z,6.58
2023-05-04T01:30:56.017Z,6.25
2023-05-04T01:33:24.179Z,6.38
2023-05-04T01:35:51.780Z,6.27
2023-05-04T01:38:19.922Z,6.05
2023-05-04T01:40:47.102Z,6.04
2023-05-04T01:43:14.607Z,5.97
2023-05-04T01:45:42.016Z,5.84
2023-05-04T01:48:09.581Z,5.77
2023-05-04T01:50:36.956Z,5.75
2023-05-04T01:53:04.402Z,5.92
2023-05-04T01:55:32.838Z,6.03
2023-05-04T01:58:00.692Z,6.18
2023-05-04T02:00:28.516Z,5.99
2023-05-04T02:02:56.141Z,5.62
2023-05-04T02:05:23.528Z,5.89
2023-05-04T02:07:51.131Z,5.89
2023-05-04T02:10:18.531Z,6.06
2023-05-04T02:12:46.427Z,6.24
2023-05-04T02:15:13.824Z,5.98
2023-05-04T02:17:41.532Z,6.02
2023-05-04T02:20:09.747Z,6.02
2023-05-04T02:22:37.388Z,6.07
2023-05-04T02:25:05.035Z,6.10
2023-05-04T02:27:32.545Z,5.89
2023-05-04T02:30:00.714Z,5.80
2023-05-04T02:32:28.310Z,5.65
2023-05-04T02:34:55.487Z,5.35
2023-05-04T02:37:23.048Z,5.57
2023-05-04T02:39:50.351Z,5.66
2023-05-04T02:42:18.013Z,5.45
2023-05-04T02:44:45.298Z,5.57
2023-05-04T02:47:13.067Z,5.77
2023-05-04T02:49:41.156Z,5.77
2023-05-04T02:52:08.760Z,5.34
2023-05-04T02:54:36.069Z,5.72
2023-05-04T02:57:04.435Z,5.85
2023-05-04T02:59:31.666Z,5.81
2023-05-04T03:01:59.168Z,5.60
2023-05-04T03:04:26.491Z,5.45
2023-05-04T03:06:53.979Z,5.86
2023-05-04T03:09:21.374Z,5.71
2023-05-04T03:11:48.937Z,5.66
2023-05-04T03:14:16.450Z,5.62
2023-05-04T03:16:45.866Z,5.69
2023-05-04T03:19:13.218Z,5.82
2023-05-04T03:21:40.775Z,5.84
2023-05-04T03:24:08.095Z,5.88
2023-05-04T03:26:36.085Z,6.34
2023-05-04T03:29:03.288Z,6.81
2023-05-04T03:31:31.427Z,7.30
2023-05-04T03:33:59.351Z,7.97
2023-05-04T03:36:26.973Z,8.87
2023-05-04T03:38:54.271Z,9.14
2023-05-04T03:41:21.899Z,9.12
2023-05-04T03:43:49.105Z,9.57
2023-05-04T03:46:17.038Z,9.86
2023-05-04T03:48:46.237Z,10.51
2023-05-04T03:51:16.259Z,10.69
2023-05-04T03:53:44.806Z,10.64
2023-05-04T03:56:15.195Z,11.53
2023-05-04T03:58:42.552Z,12.28
2023-05-04T04:01:10.373Z,13.52
2023-05-04T04:03:39.158Z,14.47
2023-05-04T04:06:09.792Z,15.99
2023-05-04T04:08:37.930Z,15.79
2023-05-04T04:11:05.646Z,16.51
2023-05-04T04:13:32.943Z,16.44
2023-05-04T04:16:00.500Z,16.15
2023-05-04T04:18:27.696Z,16.74
2023-05-04T04:20:55.624Z,15.81
2023-05-04T04:23:22.903Z,16.45
2023-05-04T04:25:51.311Z,16.09
2023-05-04T04:28:18.580Z,16.64
2023-05-04T04:30:46.460Z,16.74
2023-05-04T04:33:13.658Z,16.87
2023-05-04T04:35:41.820Z,17.47
2023-05-04T04:38:09.392Z,18.20
2023-05-04T04:40:36.834Z,18.79
2023-05-04T04:43:04.817Z,17.17
2023-05-04T04:45:33.797Z,17.67
2023-05-04T04:48:01.954Z,18.99
2023-05-04T04:50:30.022Z,20.02
2023-05-04T04:52:57.218Z,19.88
2023-05-04T04:55:26.128Z,19.81
2023-05-04T04:57:54.333Z,20.91
2023-05-04T05:00:23.119Z,21.11
2023-05-04T05:02:50.380Z,22.07
2023-05-04T05:05:18.198Z,21.87
2023-05-04T05:07:45.484Z,23.65
2023-05-04T05:10:13.347Z,24.85
2023-05-04T05:12:40.606Z,26.14
2023-05-04T05:15:08.765Z,27.64
2023-05-04T05:17:37.741Z,27.16
2023-05-04T05:20:12.540Z,26.35
2023-05-04T05:22:40.361Z,28.10
2023-05-04T05:25:08.547Z,29.19
2023-05-04T05:27:36.831Z,27.23
2023-05-04T05:30:06.263Z,30.03
2023-05-04T05:32:34.086Z,30.05
2023-05-04T05:35:01.813Z,31.34
2023-05-04T05:37:29.316Z,30.76
2023-05-04T05:39:57.041Z,31.05
2023-05-04T05:42:24.506Z,32.26
2023-05-04T05:44:52.042Z,33.44
2023-05-04T05:47:19.491Z,32.79
2023-05-04T05:49:47.013Z,34.38
2023-05-04T05:52:14.639Z,33.56
2023-05-04T05:54:42.461Z,33.36
2023-05-04T05:57:09.757Z,32.61
2023-05-04T05:59:37.360Z,31.70
2023-05-04T06:02:04.592Z,28.93
2023-05-04T06:04:32.228Z,28.78
2023-05-04T06:06:59.441Z,29.64
2023-05-04T06:09:27.101Z,32.11
2023-05-04T06:11:55.676Z,33.75
2023-05-04T06:14:23.244Z,33.28
2023-05-04T06:16:50.601Z,34.52
2023-05-04T06:19:18.080Z,35.47
2023-05-04T06:21:45.317Z,34.87
2023-05-04T06:24:12.844Z,31.86
2023-05-04T06:26:40.104Z,33.62
2023-05-04T06:29:07.811Z,32.53
2023-05-04T06:31:35.807Z,33.19
2023-05-04T06:34:03.452Z,33.81
2023-05-04T06:36:31.293Z,33.47
2023-05-04T06:38:58.850Z,34.72
2023-05-04T06:41:26.315Z,34.50
2023-05-04T06:43:53.822Z,33.58
2023-05-04T06:46:21.240Z,33.93
2023-05-04T06:48:49.027Z,33.61
2023-05-04T06:51:16.306Z,32.16
2023-05-04T06:53:43.974Z,32.79
2023-05-04T06:56:11.244Z,34.23
2023-05-04T06:58:38.914Z,33.06
2023-05-04T07:01:09.331Z,33.75
2023-05-04T07:03:37.289Z,32.43
2023-05-04T07:06:04.968Z,34.62
2023-05-04T07:08:33.214Z,34.29
2023-05-04T07:11:00.643Z,34.64
2023-05-04T07:13:28.521Z,34.95
2023-05-04T07:15:56.243Z,31.42
2023-05-04T07:18:23.754Z,32.58
2023-05-04T07:20:51.966Z,35.16
2023-05-04T07:23:20.417Z,35.40
2023-05-04T07:25:47.633Z,36.29
2023-05-04T07:28:16.725Z,36.22
2023-05-04T07:30:43.938Z,35.77
2023-05-04T07:33:11.745Z,35.83
2023-05-04T07:35:38.969Z,36.58
2023-05-04T07:38:06.549Z,34.80
2023-05-04T07:40:33.864Z,35.96
2023-05-04T07:43:01.441Z,35.22
2023-05-04T07:45:28.793Z,36.62
2023-05-04T07:47:56.420Z,37.17
2023-05-04T07:50:23.621Z,37.13
2023-05-04T07:52:52.328Z,35.99
2023-05-04T07:55:19.755Z,34.62
2023-05-04T07:57:47.324Z,36.93
2023-05-04T08:00:15.069Z,36.70
2023-05-04T08:02:42.687Z,37.01
2023-05-04T08:05:10.251Z,34.67
2023-05-04T08:07:38.071Z,33.98
2023-05-04T08:10:05.848Z,33.97
2023-05-04T08:12:33.635Z,34.84
2023-05-04T08:15:01.066Z,33.88
2023-05-04T08:17:29.732Z,35.73
2023-05-04T08:19:56.988Z,35.55
2023-05-04T08:22:24.881Z,35.25
2023-05-04T08:24:52.324Z,35.45
2023-05-04T08:27:19.872Z,35.56
2023-05-04T08:29:47.146Z,36.25
2023-05-04T08:32:14.660Z,35.11
2023-05-04T08:34:41.971Z,32.89
2023-05-04T08:37:09.536Z,32.43
2023-05-04T08:39:38.394Z,33.55
2023-05-04T08:42:07.513Z,31.95
2023-05-04T08:44:35.393Z,32.20
2023-05-04T08:47:04.676Z,30.73
2023-05-04T08:49:32.105Z,29.07
2023-05-04T08:52:00.660Z,30.43
2023-05-04T08:54:29.156Z,31.08
2023-05-04T08:56:57.376Z,31.93
2023-05-04T08:59:28.151Z,32.39
2023-05-04T09:01:57.823Z,31.53
2023-05-04T09:04:29.206Z,32.30
2023-05-04T09:06:58.009Z,33.01
2023-05-04T09:09:29.538Z,32.85
2023-05-04T09:11:58.706Z,31.00
2023-05-04T09:14:33.399Z,27.13
2023-05-04T09:17:02.011Z,26.26
2023-05-04T09:19:33.754Z,24.44
2023-05-04T09:22:02.291Z,26.77
2023-05-04T09:24:30.219Z,27.27
2023-05-04T09:27:11.731Z,28.78
2023-05-04T09:29:40.711Z,27.34
2023-05-04T09:32:15.380Z,28.14
2023-05-04T09:34:52.896Z,29.33
2023-05-04T09:37:22.169Z,29.09
2023-05-04T09:39:58.299Z,26.86
2023-05-04T09:42:26.913Z,27.11
2023-05-04T09:45:05.982Z,26.40
2023-05-04T09:47:36.392Z,25.44
2023-05-04T09:50:22.447Z,25.44
2023-05-04T09:52:50.529Z,22.18
2023-05-04T09:55:19.788Z,21.83
2023-05-04T09:57:50.382Z,-146.14
2023-05-04T10:00:19.104Z,24.20
2023-05-04T10:02:48.078Z,23.71
2023-05-04T10:05:18.107Z,24.05
2023-05-04T10:07:45.739Z,23.81
2023-05-04T10:10:14.575Z,24.77
2023-05-04T10:12:44.531Z,25.45
2023-05-04T10:15:12.591Z,26.55
2023-05-04T10:17:55.317Z,25.51
2023-05-04T10:20:31.654Z,26.58
2023-05-04T10:23:04.845Z,27.28
2023-05-04T10:25:57.748Z,24.06
2023-05-04T10:28:47.453Z,21.37
2023-05-04T10:31:14.730Z,21.93
2023-05-04T10:33:43.301Z,22.26
2023-05-04T10:36:11.703Z,21.63
2023-05-04T10:38:41.432Z,23.49
2023-05-04T10:41:16.920Z,24.18
2023-05-04T10:43:49.216Z,22.90
2023-05-04T10:46:24.016Z,21.92
2023-05-04T10:48:52.322Z,22.35
2023-05-04T10:51:21.307Z,21.87
2023-05-04T10:53:49.353Z,21.33
2023-05-04T10:56:27.814Z,20.03
2023-05-04T10:58:55.750Z,19.77
2023-05-04T11:01:23.236Z,20.62
2023-05-04T11:03:52.623Z,20.38
2023-05-04T11:06:24.354Z,18.98
2023-05-04T11:09:03.547Z,19.21
2023-05-04T11:11:37.679Z,17.99
2023-05-04T11:14:05.157Z,17.75
2023-05-04T11:16:32.424Z,17.20
2023-05-04T11:19:12.682Z,17.26
2023-05-04T11:21:40.841Z,17.62
2023-05-04T11:24:08.989Z,17.31
2023-05-04T11:26:48.758Z,17.60
2023-05-04T11:29:16.896Z,16.62
2023-05-04T11:31:54.464Z,15.99
2023-05-04T11:34:22.483Z,15.75
2023-05-04T11:36:50.024Z,15.60
2023-05-04T11:39:17.495Z,15.56
2023-05-04T11:41:45.120Z,14.99
2023-05-04T11:44:12.651Z,15.90
2023-05-04T11:46:40.456Z,14.91
2023-05-04T11:49:08.056Z,15.32
2023-05-04T11:51:36.021Z,15.42
2023-05-04T11:54:03.397Z,15.23
2023-05-04T11:56:40.853Z,15.44
2023-05-04T11:59:11.244Z,14.95
2023-05-04T12:01:38.797Z,14.72
2023-05-04T12:04:06.421Z,14.63
2023-05-04T12:06:34.071Z,14.53
2023-05-04T12:09:06.239Z,14.23
2023-05-04T12:11:35.387Z,14.25
2023-05-04T12:14:04.013Z,13.95
2023-05-04T12:16:31.645Z,14.35
2023-05-04T12:19:05.094Z,13.94
2023-05-04T12:21:33.970Z,13.26
2023-05-04T12:24:03.367Z,13.26
2023-05-04T12:26:31.252Z,13.10
2023-05-04T12:28:58.709Z,13.29
2023-05-04T12:31:27.295Z,13.54
2023-05-04T12:33:55.158Z,13.43
2023-05-04T12:36:22.746Z,13.53
2023-05-04T12:38:50.243Z,13.27
2023-05-04T12:41:17.752Z,13.23
2023-05-04T12:43:45.099Z,13.38
2023-05-04T12:46:12.766Z,13.45
2023-05-04T12:48:40.088Z,13.09
2023-05-04T12:51:07.708Z,13.86
2023-05-04T12:53:34.981Z,13.36
2023-05-04T12:56:03.775Z,12.65
2023-05-04T12:58:31.309Z,12.65
2023-05-04T13:00:59.788Z,12.54
2023-05-04T13:03:27.196Z,12.92
2023-05-04T13:05:54.785Z,12.82
2023-05-04T13:08:21.997Z,13.87
2023-05-04T13:10:49.499Z,13.52
2023-05-04T13:13:18.011Z,13.91
2023-05-04T13:15:49.573Z,13.04
2023-05-04T13:18:16.944Z,13.52
2023-05-04T13:20:44.492Z,13.08
2023-05-04T13:23:12.217Z,12.23
2023-05-04T13:25:39.747Z,11.76
2023-05-04T13:28:06.930Z,11.81
2023-05-04T13:30:34.414Z,12.05
2023-05-04T13:33:03.772Z,12.08
2023-05-04T13:35:35.534Z,12.08
2023-05-04T13:38:02.908Z,12.05
2023-05-04T13:40:30.366Z,12.20
2023-05-04T13:42:57.803Z,12.75
2023-05-04T13:45:25.701Z,11.98
2023-05-04T13:47:53.797Z,12.45
2023-05-04T13:50:21.338Z,12.43
2023-05-04T13:52:48.633Z,13.51
2023-05-04T13:55:18.604Z,13.75
2023-05-04T13:57:45.896Z,12.71
2023-05-04T14:00:15.083Z,11.95
2023-05-04T14:02:44.133Z,11.91
2023-05-04T14:05:12.086Z,12.36
2023-05-04T14:07:39.498Z,12.81
2023-05-04T14:10:07.934Z,12.63
2023-05-04T14:12:35.306Z,12.26
2023-05-04T14:15:02.930Z,13.33
2023-05-04T14:17:30.876Z,13.05
2023-05-04T14:19:59.004Z,13.50
2023-05-04T14:22:26.271Z,12.59
2023-05-04T14:24:53.923Z,11.95
2023-05-04T14:27:21.167Z,12.33
2023-05-04T14:29:48.829Z,12.05
2023-05-04T14:32:16.096Z,12.20
2023-05-04T14:34:43.621Z,11.61
2023-05-04T14:37:10.900Z,11.77
2023-05-04T14:39:39.543Z,11.98
2023-05-04T14:42:06.728Z,11.78
2023-05-04T14:44:34.333Z,11.86
2023-05-04T14:47:04.860Z,12.19
2023-05-04T14:49:37.052Z,11.97
2023-05-04T14:52:05.267Z,12.13
2023-05-04T14:54:33.113Z,12.22
2023-05-04T14:57:00.363Z,12.31
2023-05-04T14:59:27.952Z,12.04
2023-05-04T15:01:57.268Z,11.57
2023-05-04T15:04:24.874Z,11.75
2023-05-04T15:06:52.760Z,12.11
2023-05-04T15:09:20.676Z,11.86
2023-05-04T15:11:48.692Z,12.37
2023-05-04T15:14:16.411Z,11.99
2023-05-04T15:16:43.738Z,12.37
2023-05-04T15:19:11.368Z,12.43
2023-05-04T15:21:38.789Z,12.11
2023-05-04T15:24:06.419Z,11.81
2023-05-04T15:26:34.701Z,11.04
2023-05-04T15:29:02.198Z,10.93
2023-05-04T15:31:29.455Z,11.16
2023-05-04T15:33:56.967Z,11.67
2023-05-04T15:36:24.583Z,11.92
2023-05-04T15:38:52.175Z,11.46
2023-05-04T15:41:19.421Z,11.46
2023-05-04T15:43:47.063Z,10.77
2023-05-04T15:46:15.358Z,10.45
2023-05-04T15:48:42.989Z,11.02
2023-05-04T15:51:12.143Z,11.43
2023-05-04T15:53:40.111Z,11.77
2023-05-04T15:56:07.850Z,11.72
2023-05-04T15:58:35.624Z,12.14
2023-05-04T16:01:04.310Z,12.23
2023-05-04T16:03:32.443Z,12.24
2023-05-04T16:05:59.833Z,12.16
2023-05-04T16:08:27.909Z,12.13
2023-05-04T16:10:55.900Z,11.54
2023-05-04T16:13:23.490Z,11.21
2023-05-04T16:15:51.734Z,10.84
2023-05-04T16:18:19.592Z,11.03
2023-05-04T16:20:48.193Z,10.92
2023-05-04T16:23:17.377Z,10.87
2023-05-04T16:25:44.756Z,10.19
2023-05-04T16:28:12.481Z,10.73
2023-05-04T16:30:42.388Z,11.25
2023-05-04T16:33:10.219Z,11.28
2023-05-04T16:35:37.792Z,10.60
2023-05-04T16:38:05.292Z,10.05
2023-05-04T16:40:32.812Z,10.30
2023-05-04T16:43:00.500Z,10.68
2023-05-04T16:45:31.369Z,10.87
2023-05-04T16:47:59.293Z,10.56
2023-05-04T16:50:26.755Z,10.32
2023-05-04T16:52:54.486Z,10.66
2023-05-04T16:55:21.867Z,10.88
2023-05-04T16:57:49.965Z,10.82
2023-05-04T17:00:17.599Z,10.91
2023-05-04T17:02:45.531Z,10.68
2023-05-04T17:05:12.977Z,10.68
2023-05-04T17:07:43.326Z,10.76
2023-05-04T17:10:11.414Z,10.64
2023-05-04T17:12:39.270Z,10.36
2023-05-04T17:15:07.050Z,10.52
2023-05-04T17:17:34.616Z,10.46
2023-05-04T17:20:03.261Z,10.44
2023-05-04T17:22:30.810Z,9.91
2023-05-04T17:24:58.047Z,10.20
2023-05-04T17:27:25.684Z,10.19
2023-05-04T17:29:52.976Z,10.37
2023-05-04T17:32:20.610Z,10.07
2023-05-04T17:34:48.050Z,9.90
2023-05-04T17:37:15.635Z,9.79
2023-05-04T17:39:42.888Z,9.59
2023-05-04T17:42:12.290Z,9.53
2023-05-04T17:44:39.508Z,9.40
2023-05-04T17:47:07.933Z,9.18
2023-05-04T17:49:35.261Z,9.35
2023-05-04T17:52:02.732Z,9.04
2023-05-04T17:54:30.392Z,9.22
2023-05-04T17:56:57.933Z,9.28
2023-05-04T17:59:25.351Z,8.97
2023-05-04T18:01:53.423Z,8.99
2023-05-04T18:04:20.743Z,9.16
2023-05-04T18:06:50.620Z,9.18
2023-05-04T18:09:19.610Z,9.00
2023-05-04T18:11:47.344Z,9.14
2023-05-04T18:14:14.522Z,8.70
2023-05-04T18:16:42.128Z,9.08
2023-05-04T18:19:09.545Z,9.00
2023-05-04T18:21:37.523Z,9.09
2023-05-04T18:24:05.501Z,8.91
2023-05-04T18:26:33.209Z,9.09
2023-05-04T18:29:11.190Z,9.08
2023-05-04T18:31:39.111Z,8.67
2023-05-04T18:34:06.796Z,8.83
2023-05-04T18:36:34.297Z,8.83
2023-05-04T18:39:01.566Z,8.63
2023-05-04T18:41:29.227Z,8.70
2023-05-04T18:43:56.467Z,8.75
2023-05-04T18:46:24.055Z,8.76
2023-05-04T18:48:51.361Z,9.07
2023-05-04T18:51:19.101Z,8.83
2023-05-04T18:53:48.185Z,8.80
2023-05-04T18:56:15.810Z,9.14
2023-05-04T18:58:43.150Z,8.95
2023-05-04T19:01:11.177Z,8.84
2023-05-04T19:03:38.559Z,8.97
2023-05-04T19:06:06.504Z,9.03
2023-05-04T19:08:34.207Z,9.08
2023-05-04T19:11:03.668Z,8.79
2023-05-04T19:13:31.373Z,8.79
2023-05-04T19:15:58.904Z,8.73
2023-05-04T19:18:26.833Z,8.37
2023-05-04T19:20:54.768Z,8.34
2023-05-04T19:23:21.973Z,8.51
2023-05-04T19:25:49.447Z,8.33
2023-05-04T19:28:16.723Z,8.56
2023-05-04T19:30:44.290Z,8.66
2023-05-04T19:33:11.844Z,8.63
2023-05-04T19:35:39.444Z,8.61
2023-05-04T19:38:06.868Z,8.66
2023-05-04T19:40:35.305Z,8.56
2023-05-04T19:43:02.632Z,8.43
2023-05-04T19:45:30.259Z,8.40
2023-05-04T19:47:57.617Z,8.33
2023-05-04T19:50:25.255Z,8.36
2023-05-04T19:52:52.695Z,8.37
2023-05-04T19:55:20.403Z,8.31
2023-05-04T19:57:49.892Z,8.51
2023-05-04T20:00:19.465Z,8.63
2023-05-04T20:02:47.160Z,8.67
2023-05-04T20:05:14.854Z,8.53
2023-05-04T20:07:42.092Z,8.45
2023-05-04T20:10:09.885Z,8.46
2023-05-04T20:12:37.278Z,8.47
2023-05-04T20:15:06.424Z,8.23
2023-05-04T20:17:33.764Z,8.33
2023-05-04T20:20:04.503Z,8.52
2023-05-04T20:22:32.561Z,8.34
2023-05-04T20:25:00.162Z,8.17
2023-05-04T20:27:27.448Z,8.05
2023-05-04T20:29:55.030Z,7.84
2023-05-04T20:32:22.467Z,8.13
2023-05-04T20:34:49.948Z,8.15
2023-05-04T20:37:17.224Z,8.34
2023-05-04T20:39:44.713Z,7.97
2023-05-04T20:42:12.601Z,8.40
2023-05-04T20:44:41.271Z,8.16
2023-05-04T20:47:08.488Z,8.31
2023-05-04T20:49:36.226Z,7.79
2023-05-04T20:52:04.439Z,8.02
2023-05-04T20:54:32.028Z,8.15
2023-05-04T20:56:59.225Z,8.25
2023-05-04T20:59:26.741Z,8.35
2023-05-04T21:01:54.028Z,8.35
2023-05-04T21:04:21.660Z,8.03
2023-05-04T21:06:48.833Z,8.11
2023-05-04T21:09:16.554Z,8.02
2023-05-04T21:11:43.794Z,8.10
2023-05-04T21:14:11.409Z,7.78
2023-05-04T21:16:38.551Z,7.67
2023-05-04T21:19:06.018Z,7.89
2023-05-04T21:21:37.177Z,7.62
2023-05-04T21:24:04.882Z,7.75
2023-05-04T21:26:32.033Z,7.98
2023-05-04T21:28:59.573Z,8.01
2023-05-04T21:31:26.875Z,7.77
2023-05-04T21:33:54.412Z,7.76
2023-05-04T21:36:23.225Z,7.88
2023-05-04T21:38:50.735Z,7.81
2023-05-04T21:41:17.931Z,7.54
2023-05-04T21:43:45.702Z,7.60
2023-05-04T21:46:13.010Z,7.69
2023-05-04T21:48:41.257Z,7.89
2023-05-04T21:51:08.509Z,8.01
2023-05-04T21:53:36.387Z,7.53
2023-05-04T21:56:11.007Z,7.87
2023-05-04T21:58:40.616Z,7.76
2023-05-04T22:01:08.690Z,7.51
2023-05-04T22:03:36.804Z,7.64
2023-05-04T22:06:04.428Z,7.88
2023-05-04T22:08:32.098Z,7.83
2023-05-04T22:10:59.313Z,7.71
2023-05-04T22:13:27.348Z,7.63
2023-05-04T22:15:54.788Z,7.49
2023-05-04T22:18:22.287Z,7.62
2023-05-04T22:20:49.520Z,7.54
2023-05-04T22:23:17.017Z,7.61
2023-05-04T22:25:44.188Z,7.89
2023-05-04T22:28:11.967Z,7.81
2023-05-04T22:30:39.854Z,7.52
2023-05-04T22:33:07.596Z,7.60
2023-05-04T22:35:34.884Z,7.56
2023-05-04T22:38:02.706Z,7.75
2023-05-04T22:40:29.951Z,7.68
2023-05-04T22:42:57.422Z,7.54
2023-05-04T22:45:24.615Z,7.27
2023-05-04T22:47:52.342Z,7.63
2023-05-04T22:50:19.788Z,7.92
2023-05-04T22:52:48.413Z,7.12
2023-05-04T22:55:15.688Z,7.76
2023-05-04T22:57:43.223Z,7.75
2023-05-04T23:00:11.394Z,7.78
2023-05-04T23:02:40.531Z,7.55
2023-05-04T23:05:09.064Z,7.60
2023-05-04T23:07:36.568Z,7.38
2023-05-04T23:10:04.156Z,7.56
2023-05-04T23:12:31.760Z,7.75
2023-05-04T23:14:59.251Z,7.47
2023-05-04T23:17:26.761Z,7.62
2023-05-04T23:19:53.990Z,7.43
2023-05-04T23:22:21.522Z,7.78
2023-05-04T23:24:48.813Z,7.78
2023-05-04T23:27:16.293Z,7.47
2023-05-04T23:29:43.489Z,7.64
2023-05-04T23:32:11.260Z,7.57
2023-05-04T23:34:38.592Z,7.38
2023-05-04T23:37:06.098Z,7.67
2023-05-04T23:39:33.306Z,7.78
2023-05-04T23:42:00.899Z,7.77
2023-05-04T23:44:28.132Z,7.44
2023-05-04T23:46:55.705Z,7.79
2023-05-04T23:49:22.901Z,7.47
2023-05-04T23:51:50.406Z,7.59
2023-05-04T23:54:17.792Z,7.45
2023-05-04T23:56:45.322Z,7.68
2023-05-04T23:59:12.564Z,7.37
